createdAt,value
2017-03-11T00:00:23.023Z,3.64
2017-03-11T00:01:15.729Z,3.42
2017-03-11T00:02:13.681Z,3.35
2017-03-11T00:04:17.425Z,3.32
2017-03-11T00:06:13.737Z,3.52
2017-03-11T00:07:22.447Z,3.55
2017-03-11T00:08:15.298Z,3.72
2017-03-11T00:10:27.401Z,3.41
2017-03-11T00:11:14.050Z,3.51
2017-03-11T00:12:28.041Z,3.20
2017-03-11T00:14:15.841Z,3.33
2017-03-11T00:15:16.214Z,3.34
2017-03-11T00:16:29.522Z,3.31
2017-03-11T00:17:15.112Z,3.27
2017-03-11T00:18:13.364Z,3.48
2017-03-11T00:19:16.225Z,3.25
2017-03-11T00:21:14.435Z,3.35
2017-03-11T00:22:13.815Z,3.46
2017-03-11T00:23:15.414Z,3.23
2017-03-11T00:24:15.805Z,3.27
2017-03-11T00:25:21.755Z,3.23
2017-03-11T00:26:13.759Z,3.31
2017-03-11T00:27:17.536Z,3.19
2017-03-11T00:29:13.266Z,3.32
2017-03-11T00:30:17.446Z,3.21
2017-03-11T00:32:14.709Z,3.18
2017-03-11T00:33:22.787Z,3.22
2017-03-11T00:35:22.525Z,3.16
2017-03-11T00:36:14.696Z,3.27
2017-03-11T00:38:19.407Z,3.08
2017-03-11T00:39:17.847Z,3.25
2017-03-11T00:41:14.027Z,2.94
2017-03-11T00:42:14.983Z,2.88
2017-03-11T00:43:23.208Z,2.98
2017-03-11T00:45:17.618Z,3.07
2017-03-11T00:46:14.116Z,3.16
2017-03-11T00:47:19.395Z,3.05
2017-03-11T00:48:18.803Z,3.00
2017-03-11T00:49:23.027Z,3.12
2017-03-11T00:50:12.897Z,3.06
2017-03-11T00:52:13.983Z,3.17
2017-03-11T00:53:27.398Z,3.18
2017-03-11T00:55:22.418Z,3.08
2017-03-11T00:56:16.769Z,3.11
2017-03-11T00:57:16.869Z,2.99
2017-03-11T00:58:22.618Z,3.28
2017-03-11T00:59:14.999Z,3.08
2017-03-11T01:01:16.003Z,3.18
2017-03-11T01:02:18.245Z,2.87
2017-03-11T01:03:23.390Z,2.92
2017-03-11T01:05:19.233Z,3.03
2017-03-11T01:06:15.826Z,3.03
2017-03-11T01:08:15.005Z,3.28
2017-03-11T01:09:23.008Z,3.21
2017-03-11T01:10:21.764Z,2.99
2017-03-11T01:11:22.762Z,3.15
2017-03-11T01:12:22.518Z,3.18
2017-03-11T01:13:21.662Z,2.86
2017-03-11T01:14:13.773Z,2.90
2017-03-11T01:15:18.396Z,2.96
2017-03-11T01:16:17.622Z,3.00
2017-03-11T01:17:17.450Z,2.83
2017-03-11T01:18:17.223Z,2.90
2017-03-11T01:19:17.352Z,2.87
2017-03-11T01:20:22.520Z,2.71
2017-03-11T01:21:16.745Z,2.78
2017-03-11T01:22:14.211Z,2.83
2017-03-11T01:23:15.011Z,2.75
2017-03-11T01:24:17.516Z,2.76
2017-03-11T01:25:16.755Z,2.86
2017-03-11T01:26:17.299Z,2.91
2017-03-11T01:27:18.088Z,2.83
2017-03-11T01:28:22.092Z,2.85
2017-03-11T01:29:17.526Z,2.82
2017-03-11T01:30:14.560Z,2.83
2017-03-11T01:31:15.547Z,2.86
2017-03-11T01:32:13.157Z,2.87
2017-03-11T01:33:14.212Z,2.91
2017-03-11T01:34:22.316Z,3.12
2017-03-11T01:35:22.262Z,3.05
2017-03-11T01:36:17.080Z,2.61
2017-03-11T01:37:17.254Z,2.87
2017-03-11T01:38:17.770Z,2.91
2017-03-11T01:39:18.533Z,2.89
2017-03-11T01:40:16.756Z,2.80
2017-03-11T01:41:17.838Z,2.89
2017-03-11T01:42:21.985Z,2.73
2017-03-11T01:43:21.982Z,2.74
2017-03-11T01:44:16.960Z,2.65
2017-03-11T01:45:15.898Z,2.80
2017-03-11T01:46:15.743Z,2.78
2017-03-11T01:47:16.224Z,2.59
2017-03-11T01:48:17.436Z,2.71
2017-03-11T01:49:17.637Z,2.85
2017-03-11T01:50:14.812Z,2.75
2017-03-11T01:51:17.292Z,2.83
2017-03-11T01:52:16.898Z,2.81
2017-03-11T01:53:17.710Z,2.97
2017-03-11T01:54:16.864Z,2.80
2017-03-11T01:55:17.016Z,2.96
2017-03-11T01:56:17.175Z,2.81
2017-03-11T01:57:18.203Z,2.95
2017-03-11T01:58:22.505Z,2.75
2017-03-11T01:59:17.216Z,2.78
2017-03-11T02:00:17.301Z,2.85
2017-03-11T02:01:17.440Z,2.96
2017-03-11T02:02:22.004Z,2.80
2017-03-11T02:03:18.662Z,2.79
2017-03-11T02:04:22.944Z,2.68
2017-03-11T02:05:22.281Z,2.86
2017-03-11T02:06:17.152Z,2.99
2017-03-11T02:07:16.762Z,2.91
2017-03-11T02:08:17.230Z,2.83
2017-03-11T02:09:13.446Z,2.64
2017-03-11T02:10:17.588Z,2.80
2017-03-11T02:11:16.717Z,2.64
2017-03-11T02:12:17.244Z,2.78
2017-03-11T02:13:22.238Z,2.62
2017-03-11T02:14:20.438Z,2.69
2017-03-11T02:17:14.064Z,2.68
2017-03-11T02:18:22.111Z,2.72
2017-03-11T02:19:22.030Z,2.68
2017-03-11T02:20:17.349Z,2.68
2017-03-11T02:21:16.942Z,2.63
2017-03-11T02:22:17.206Z,2.76
2017-03-11T02:23:15.332Z,2.67
2017-03-11T02:24:16.660Z,2.71
2017-03-11T02:25:16.786Z,2.67
2017-03-11T02:26:16.762Z,2.63
2017-03-11T02:27:15.557Z,2.79
2017-03-11T02:28:21.957Z,2.55
2017-03-11T02:29:21.701Z,2.49
2017-03-11T02:30:16.821Z,2.54
2017-03-11T02:31:21.582Z,2.54
2017-03-11T02:32:17.073Z,2.63
2017-03-11T02:33:14.129Z,2.71
2017-03-11T02:34:14.436Z,2.69
2017-03-11T02:35:17.606Z,2.59
2017-03-11T02:36:16.750Z,2.76
2017-03-11T02:37:16.735Z,2.79
2017-03-11T02:38:13.833Z,2.68
2017-03-11T02:39:17.278Z,2.83
2017-03-11T02:40:18.695Z,2.56
2017-03-11T02:41:22.325Z,2.75
2017-03-11T02:42:17.423Z,2.71
2017-03-11T02:43:13.854Z,2.80
2017-03-11T02:44:14.574Z,2.62
2017-03-11T02:45:18.469Z,2.61
2017-03-11T02:46:17.566Z,2.64
2017-03-11T02:47:15.912Z,2.59
2017-03-11T02:48:13.960Z,2.62
2017-03-11T02:49:17.227Z,2.78
2017-03-11T02:50:17.500Z,2.53
2017-03-11T02:51:19.886Z,2.62
2017-03-11T02:52:17.118Z,2.79
2017-03-11T02:53:22.494Z,2.67
2017-03-11T02:54:15.774Z,2.58
2017-03-11T02:55:17.961Z,2.55
2017-03-11T02:56:16.994Z,2.68
2017-03-11T02:57:22.406Z,2.54
2017-03-11T02:58:16.977Z,2.44
2017-03-11T02:59:16.819Z,2.40
2017-03-11T03:00:17.581Z,2.54
2017-03-11T03:01:13.911Z,2.61
2017-03-11T03:02:17.542Z,2.69
2017-03-11T03:03:13.098Z,2.65
2017-03-11T03:04:17.705Z,2.60
2017-03-11T03:05:16.896Z,2.57
2017-03-11T03:06:17.306Z,2.66
2017-03-11T03:07:17.523Z,2.48
2017-03-11T03:08:21.526Z,2.43
2017-03-11T03:09:22.653Z,2.44
2017-03-11T03:10:22.117Z,2.38
2017-03-11T03:11:15.317Z,2.47
2017-03-11T03:12:22.428Z,2.49
2017-03-11T03:13:17.768Z,2.35
2017-03-11T03:14:22.355Z,2.45
2017-03-11T03:15:17.592Z,2.52
2017-03-11T03:16:15.304Z,2.51
2017-03-11T03:17:15.180Z,2.42
2017-03-11T03:18:21.617Z,2.29
2017-03-11T03:19:16.707Z,2.50
2017-03-11T03:20:17.580Z,2.33
2017-03-11T03:21:18.199Z,2.42
2017-03-11T03:22:14.584Z,2.41
2017-03-11T03:23:17.656Z,2.46
2017-03-11T03:24:13.897Z,2.44
2017-03-11T03:25:22.483Z,2.61
2017-03-11T03:26:23.103Z,2.51
2017-03-11T03:27:15.211Z,2.42
2017-03-11T03:28:22.387Z,2.30
2017-03-11T03:29:18.395Z,2.45
2017-03-11T03:30:27.927Z,2.55
2017-03-11T03:31:16.903Z,2.32
2017-03-11T03:32:14.294Z,2.31
2017-03-11T03:33:14.506Z,2.63
2017-03-11T03:34:16.694Z,2.24
2017-03-11T03:35:22.305Z,1.99
2017-03-11T03:36:22.253Z,2.37
2017-03-11T03:37:13.627Z,2.28
2017-03-11T03:38:17.180Z,2.31
2017-03-11T03:39:22.296Z,2.42
2017-03-11T03:40:17.644Z,2.14
2017-03-11T03:41:17.225Z,2.21
2017-03-11T03:42:19.456Z,2.09
2017-03-11T03:43:14.544Z,2.01
2017-03-11T03:44:22.113Z,1.99
2017-03-11T03:45:15.155Z,1.81
2017-03-11T03:46:18.289Z,2.02
2017-03-11T03:47:15.360Z,2.22
2017-03-11T03:48:22.496Z,2.09
2017-03-11T03:49:18.080Z,2.26
2017-03-11T03:50:16.687Z,2.28
2017-03-11T03:51:16.941Z,2.32
2017-03-11T03:52:16.719Z,2.34
2017-03-11T03:53:18.400Z,2.35
2017-03-11T03:54:14.455Z,2.35
2017-03-11T03:55:22.351Z,2.24
2017-03-11T03:56:17.337Z,2.36
2017-03-11T03:57:22.552Z,2.28
2017-03-11T03:58:22.451Z,2.19
2017-03-11T03:59:17.324Z,2.28
2017-03-11T04:00:22.463Z,2.34
2017-03-11T04:01:22.012Z,2.20
2017-03-11T04:02:17.622Z,2.34
2017-03-11T04:03:13.988Z,2.24
2017-03-11T04:04:17.232Z,2.26
2017-03-11T04:05:18.236Z,2.21
2017-03-11T04:06:18.250Z,2.33
2017-03-11T04:07:15.233Z,2.30
2017-03-11T04:08:21.946Z,2.25
2017-03-11T04:09:16.786Z,2.14
2017-03-11T04:10:17.680Z,2.14
2017-03-11T04:11:18.391Z,2.16
2017-03-11T04:12:17.323Z,2.16
2017-03-11T04:13:17.487Z,2.44
2017-03-11T04:14:16.598Z,2.36
2017-03-11T04:15:16.699Z,2.28
2017-03-11T04:16:17.522Z,2.18
2017-03-11T04:17:17.760Z,2.07
2017-03-11T04:18:15.398Z,2.09
2017-03-11T04:19:23.009Z,2.10
2017-03-11T04:20:18.245Z,2.24
2017-03-11T04:21:17.449Z,2.20
2017-03-11T04:22:16.762Z,2.10
2017-03-11T04:23:17.283Z,1.92
2017-03-11T04:24:16.763Z,2.11
2017-03-11T04:25:13.977Z,2.00
2017-03-11T04:26:18.318Z,2.02
2017-03-11T04:27:18.522Z,2.02
2017-03-11T04:28:13.889Z,2.07
2017-03-11T04:29:22.597Z,2.17
2017-03-11T04:30:21.692Z,1.97
2017-03-11T04:31:16.922Z,2.07
2017-03-11T04:32:15.063Z,2.14
2017-03-11T04:33:23.144Z,1.93
2017-03-11T04:34:18.277Z,1.87
2017-03-11T04:35:22.718Z,2.08
2017-03-11T04:36:16.823Z,2.18
2017-03-11T04:37:17.023Z,2.20
2017-03-11T04:38:17.337Z,1.99
2017-03-11T04:39:18.655Z,2.07
2017-03-11T04:40:17.286Z,2.01
2017-03-11T04:41:17.232Z,2.14
2017-03-11T04:42:22.622Z,2.06
2017-03-11T04:43:22.060Z,2.10
2017-03-11T04:44:18.975Z,2.09
2017-03-11T04:45:17.570Z,2.26
2017-03-11T04:46:17.424Z,2.05
2017-03-11T04:47:18.304Z,2.01
2017-03-11T04:48:18.316Z,1.96
2017-03-11T04:49:22.328Z,1.91
2017-03-11T04:50:15.097Z,2.04
2017-03-11T04:51:18.469Z,2.06
2017-03-11T04:52:14.166Z,2.00
2017-03-11T04:53:17.340Z,2.01
2017-03-11T04:54:17.598Z,1.90
2017-03-11T04:55:21.701Z,1.98
2017-03-11T04:56:18.463Z,1.90
2017-03-11T04:57:15.437Z,2.04
2017-03-11T04:58:17.771Z,2.09
2017-03-11T05:00:16.833Z,1.97
2017-03-11T05:01:16.968Z,1.89
2017-03-11T05:02:16.336Z,1.87
2017-03-11T05:03:22.376Z,1.92
2017-03-11T05:04:17.196Z,2.02
2017-03-11T05:05:10.308Z,2.06
2017-03-11T05:06:17.602Z,1.57
2017-03-11T05:07:16.713Z,1.58
2017-03-11T05:08:12.639Z,1.60
2017-03-11T05:09:16.932Z,1.84
2017-03-11T05:10:17.627Z,1.83
2017-03-11T05:11:18.446Z,1.87
2017-03-11T05:12:16.792Z,1.83
2017-03-11T05:13:17.221Z,1.84
2017-03-11T05:14:17.286Z,1.96
2017-03-11T05:15:16.761Z,1.76
2017-03-11T05:16:16.796Z,1.83
2017-03-11T05:17:15.156Z,1.73
2017-03-11T05:18:17.417Z,1.75
2017-03-11T05:19:16.801Z,1.85
2017-03-11T05:20:16.591Z,1.91
2017-03-11T05:21:16.179Z,1.79
2017-03-11T05:22:16.944Z,1.61
2017-03-11T05:23:22.161Z,1.87
2017-03-11T05:24:18.410Z,1.79
2017-03-11T05:26:14.570Z,1.74
2017-03-11T05:27:17.799Z,1.97
2017-03-11T05:28:17.912Z,1.66
2017-03-11T05:29:18.688Z,2.01
2017-03-11T05:30:20.360Z,1.57
2017-03-11T05:31:23.424Z,1.83
2017-03-11T05:32:17.571Z,1.62
2017-03-11T05:33:17.716Z,1.80
2017-03-11T05:34:14.895Z,1.90
2017-03-11T05:35:16.726Z,2.15
2017-03-11T05:36:13.960Z,2.08
2017-03-11T05:37:17.151Z,2.22
2017-03-11T05:38:22.090Z,2.34
2017-03-11T05:39:22.838Z,2.23
2017-03-11T05:40:16.789Z,1.95
2017-03-11T05:41:16.836Z,2.14
2017-03-11T05:42:18.478Z,1.84
2017-03-11T05:43:16.700Z,1.80
2017-03-11T05:44:17.436Z,2.02
2017-03-11T05:45:16.846Z,2.08
2017-03-11T05:46:13.124Z,2.05
2017-03-11T05:47:22.839Z,2.17
2017-03-11T05:48:17.073Z,2.15
2017-03-11T05:49:22.171Z,2.22
2017-03-11T05:50:16.912Z,2.09
2017-03-11T05:51:17.303Z,2.26
2017-03-11T05:52:17.842Z,1.93
2017-03-11T05:53:16.784Z,2.31
2017-03-11T05:54:16.653Z,2.45
2017-03-11T05:55:16.874Z,1.97
2017-03-11T05:56:12.947Z,2.10
2017-03-11T05:57:17.900Z,2.18
2017-03-11T05:58:15.081Z,2.18
2017-03-11T05:59:17.109Z,2.19
2017-03-11T06:00:14.329Z,2.29
2017-03-11T06:01:18.153Z,2.08
2017-03-11T06:02:22.062Z,2.31
2017-03-11T06:03:17.104Z,2.26
2017-03-11T06:04:17.212Z,2.11
2017-03-11T06:05:16.793Z,2.29
2017-03-11T06:06:17.907Z,2.16
2017-03-11T06:07:18.140Z,2.14
2017-03-11T06:08:18.272Z,2.17
2017-03-11T06:09:17.920Z,2.19
2017-03-11T06:10:17.261Z,2.31
2017-03-11T06:11:14.373Z,2.29
2017-03-11T06:12:22.452Z,2.39
2017-03-11T06:13:17.407Z,2.28
2017-03-11T06:14:22.469Z,2.44
2017-03-11T06:15:16.511Z,2.37
2017-03-11T06:16:16.778Z,2.32
2017-03-11T06:17:18.520Z,2.22
2017-03-11T06:18:16.585Z,2.14
2017-03-11T06:19:18.203Z,2.30
2017-03-11T06:20:12.262Z,2.31
2017-03-11T06:21:18.099Z,2.35
2017-03-11T06:22:14.999Z,2.53
2017-03-11T06:23:21.712Z,2.22
2017-03-11T06:24:14.552Z,2.31
2017-03-11T06:25:17.267Z,2.26
2017-03-11T06:26:17.501Z,2.20
2017-03-11T06:27:17.524Z,2.46
2017-03-11T06:28:16.664Z,2.33
2017-03-11T06:29:17.105Z,2.37
2017-03-11T06:30:16.679Z,2.44
2017-03-11T06:31:18.189Z,2.72
2017-03-11T06:32:14.366Z,2.61
2017-03-11T06:33:17.900Z,2.49
2017-03-11T06:34:17.295Z,2.54
2017-03-11T06:35:15.208Z,2.55
2017-03-11T06:36:16.810Z,2.47
2017-03-11T06:37:17.234Z,2.45
2017-03-11T06:38:17.424Z,2.69
2017-03-11T06:39:16.523Z,2.50
2017-03-11T06:40:17.325Z,2.26
2017-03-11T06:41:18.045Z,2.40
2017-03-11T06:42:13.687Z,2.57
2017-03-11T06:43:22.171Z,2.35
2017-03-11T06:44:22.200Z,2.73
2017-03-11T06:45:25.555Z,2.68
2017-03-11T06:46:14.747Z,2.68
2017-03-11T06:47:14.247Z,2.55
2017-03-11T06:48:17.155Z,2.66
2017-03-11T06:49:22.310Z,2.67
2017-03-11T06:50:16.793Z,2.69
2017-03-11T06:51:17.002Z,2.61
2017-03-11T06:52:14.140Z,2.63
2017-03-11T06:53:18.505Z,2.67
2017-03-11T06:54:13.800Z,2.70
2017-03-11T06:55:13.069Z,2.75
2017-03-11T06:56:15.480Z,2.72
2017-03-11T06:57:16.773Z,2.60
2017-03-11T06:58:22.233Z,2.93
2017-03-11T06:59:17.514Z,2.86
2017-03-11T07:00:16.766Z,2.87
2017-03-11T07:01:13.712Z,2.88
2017-03-11T07:02:16.673Z,2.89
2017-03-11T07:03:16.787Z,2.85
2017-03-11T07:04:16.561Z,3.05
2017-03-11T07:05:17.201Z,2.98
2017-03-11T07:06:15.555Z,2.94
2017-03-11T07:07:16.996Z,3.00
2017-03-11T07:08:14.281Z,3.11
2017-03-11T07:09:17.244Z,3.07
2017-03-11T07:10:14.158Z,2.94
2017-03-11T07:11:17.359Z,3.13
2017-03-11T07:12:13.973Z,3.23
2017-03-11T07:13:15.043Z,3.26
2017-03-11T07:14:16.663Z,3.26
2017-03-11T07:15:16.769Z,3.36
2017-03-11T07:16:22.252Z,3.48
2017-03-11T07:17:13.676Z,3.47
2017-03-11T07:18:16.573Z,3.66
2017-03-11T07:19:16.567Z,3.65
2017-03-11T07:20:17.222Z,3.89
2017-03-11T07:21:13.517Z,3.83
2017-03-11T07:22:17.583Z,3.91
2017-03-11T07:23:17.885Z,3.91
2017-03-11T07:24:18.036Z,3.93
2017-03-11T07:25:17.364Z,3.87
2017-03-11T07:26:17.960Z,3.95
2017-03-11T07:27:22.586Z,3.90
2017-03-11T07:28:15.587Z,3.82
2017-03-11T07:29:17.270Z,4.18
2017-03-11T07:30:17.426Z,4.40
2017-03-11T07:31:16.512Z,4.22
2017-03-11T07:32:22.597Z,4.30
2017-03-11T07:33:16.895Z,4.33
2017-03-11T07:34:19.453Z,4.47
2017-03-11T07:35:21.558Z,4.48
2017-03-11T07:36:21.603Z,4.55
2017-03-11T07:37:17.508Z,4.49
2017-03-11T07:38:18.200Z,4.55
2017-03-11T07:39:18.057Z,4.46
2017-03-11T07:40:14.376Z,4.43
2017-03-11T07:41:15.287Z,4.63
2017-03-11T07:42:17.162Z,4.59
2017-03-11T07:43:18.575Z,4.55
2017-03-11T07:44:21.978Z,4.69
2017-03-11T07:45:17.243Z,4.83
2017-03-11T07:46:17.664Z,4.75
2017-03-11T07:47:17.235Z,4.78
2017-03-11T07:48:17.316Z,4.66
2017-03-11T07:49:17.297Z,4.60
2017-03-11T07:50:17.958Z,4.56
2017-03-11T07:51:17.029Z,4.61
2017-03-11T07:52:13.790Z,4.58
2017-03-11T07:53:17.288Z,4.89
2017-03-11T07:54:16.206Z,4.91
2017-03-11T07:55:21.702Z,5.01
2017-03-11T07:56:16.855Z,5.04
2017-03-11T07:57:17.052Z,4.95
2017-03-11T07:58:13.981Z,5.02
2017-03-11T08:00:17.170Z,5.02
2017-03-11T08:01:19.824Z,4.96
2017-03-11T08:02:16.691Z,5.07
2017-03-11T08:03:21.947Z,5.13
2017-03-11T08:04:22.519Z,5.21
2017-03-11T08:06:17.052Z,5.10
2017-03-11T08:07:16.943Z,5.15
2017-03-11T08:08:18.360Z,5.29
2017-03-11T08:09:21.483Z,5.22
2017-03-11T08:10:22.086Z,5.31
2017-03-11T08:11:20.678Z,5.28
2017-03-11T08:12:12.429Z,5.33
2017-03-11T08:13:20.561Z,5.42
2017-03-11T08:14:14.139Z,5.51
2017-03-11T08:15:22.086Z,5.43
2017-03-11T08:17:22.423Z,5.38
2017-03-11T08:18:17.441Z,5.29
2017-03-11T08:19:22.923Z,5.30
2017-03-11T08:20:18.030Z,5.34
2017-03-11T08:21:23.074Z,5.44
2017-03-11T08:22:17.145Z,5.44
2017-03-11T08:24:22.235Z,5.27
2017-03-11T08:25:16.738Z,5.51
2017-03-11T08:26:21.935Z,5.78
2017-03-11T08:27:12.240Z,5.84
2017-03-11T08:28:16.746Z,5.92
2017-03-11T08:29:22.234Z,6.13
2017-03-11T08:30:23.111Z,6.21
2017-03-11T08:31:22.217Z,6.15
2017-03-11T08:32:13.007Z,6.21
2017-03-11T08:33:17.326Z,6.27
2017-03-11T08:34:19.440Z,6.32
2017-03-11T08:35:16.575Z,6.51
2017-03-11T08:36:22.419Z,6.36
2017-03-11T08:37:17.527Z,6.32
2017-03-11T08:38:16.631Z,6.53
2017-03-11T08:39:16.868Z,6.50
2017-03-11T08:40:17.022Z,6.66
2017-03-11T08:41:16.744Z,6.50
2017-03-11T08:42:22.011Z,6.50
2017-03-11T08:43:18.400Z,6.47
2017-03-11T08:44:17.452Z,6.52
2017-03-11T08:45:16.586Z,6.64
2017-03-11T08:46:22.918Z,6.68
2017-03-11T08:47:13.683Z,6.85
2017-03-11T08:48:22.640Z,7.00
2017-03-11T08:49:13.809Z,7.00
2017-03-11T08:50:22.429Z,6.99
2017-03-11T08:51:22.015Z,6.83
2017-03-11T08:52:17.147Z,6.67
2017-03-11T08:53:22.256Z,6.74
2017-03-11T08:54:18.220Z,6.46
2017-03-11T08:55:20.438Z,6.49
2017-03-11T08:56:22.254Z,6.71
2017-03-11T08:57:17.459Z,6.81
2017-03-11T08:58:18.139Z,6.82
2017-03-11T08:59:12.292Z,6.78
2017-03-11T09:00:16.735Z,6.69
2017-03-11T09:01:22.251Z,6.78
2017-03-11T09:02:16.471Z,6.78
2017-03-11T09:03:16.783Z,6.93
2017-03-11T09:04:22.150Z,6.98
2017-03-11T09:06:21.757Z,7.16
2017-03-11T09:07:17.466Z,6.99
2017-03-11T09:08:12.872Z,6.97
2017-03-11T09:09:17.460Z,6.91
2017-03-11T09:10:20.277Z,6.88
2017-03-11T09:11:17.036Z,6.62
2017-03-11T09:12:16.951Z,6.71
2017-03-11T09:13:17.569Z,6.83
2017-03-11T09:14:11.670Z,6.88
2017-03-11T09:15:11.739Z,6.71
2017-03-11T09:16:20.723Z,6.73
2017-03-11T09:17:22.129Z,6.80
2017-03-11T09:18:21.221Z,6.74
2017-03-11T09:19:16.783Z,6.64
2017-03-11T09:20:18.092Z,6.65
2017-03-11T09:21:14.501Z,6.67
2017-03-11T09:22:12.763Z,6.74
2017-03-11T09:23:26.208Z,6.51
2017-03-11T09:24:16.546Z,6.34
2017-03-11T09:25:12.821Z,6.38
2017-03-11T09:26:17.372Z,6.42
2017-03-11T09:27:21.432Z,6.52
2017-03-11T09:29:17.507Z,6.69
2017-03-11T09:30:17.757Z,6.68
2017-03-11T09:31:13.606Z,6.65
2017-03-11T09:32:22.286Z,6.67
2017-03-11T09:33:16.526Z,6.74
2017-03-11T09:34:15.423Z,6.69
2017-03-11T09:35:17.463Z,6.81
2017-03-11T09:36:17.652Z,6.86
2017-03-11T09:37:20.720Z,6.84
2017-03-11T09:38:16.827Z,6.80
2017-03-11T09:39:14.494Z,6.82
2017-03-11T09:40:17.493Z,6.83
2017-03-11T09:41:18.163Z,6.99
2017-03-11T09:42:22.207Z,7.14
2017-03-11T09:43:22.206Z,7.30
2017-03-11T09:44:23.207Z,7.43
2017-03-11T09:45:22.427Z,7.59
2017-03-11T09:46:17.181Z,7.64
2017-03-11T09:47:16.813Z,7.74
2017-03-11T09:48:16.519Z,7.81
2017-03-11T09:49:16.536Z,7.86
2017-03-11T09:50:21.577Z,7.96
2017-03-11T09:51:22.204Z,8.15
2017-03-11T09:52:17.221Z,8.26
2017-03-11T09:53:16.711Z,8.06
2017-03-11T09:54:16.821Z,8.19
2017-03-11T09:55:16.520Z,8.45
2017-03-11T09:56:16.837Z,8.39
2017-03-11T09:57:16.725Z,8.54
2017-03-11T09:58:15.512Z,8.40
2017-03-11T09:59:17.238Z,8.61
2017-03-11T10:00:22.359Z,8.79
2017-03-11T10:01:14.547Z,8.79
2017-03-11T10:02:14.789Z,8.74
2017-03-11T10:03:17.360Z,8.84
2017-03-11T10:04:13.431Z,8.67
2017-03-11T10:05:17.132Z,8.71
2017-03-11T10:06:22.297Z,8.65
2017-03-11T10:07:17.367Z,8.68
2017-03-11T10:08:14.277Z,8.78
2017-03-11T10:09:14.477Z,8.89
2017-03-11T10:10:14.281Z,8.88
2017-03-11T10:11:17.865Z,9.09
2017-03-11T10:12:16.972Z,8.97
2017-03-11T10:13:18.251Z,9.20
2017-03-11T10:14:18.112Z,9.15
2017-03-11T10:15:13.146Z,9.29
2017-03-11T10:16:16.880Z,9.43
2017-03-11T10:17:17.522Z,9.38
2017-03-11T10:18:21.554Z,9.23
2017-03-11T10:19:27.738Z,9.03
2017-03-11T10:20:16.741Z,8.96
2017-03-11T10:21:17.239Z,8.90
2017-03-11T10:22:17.324Z,9.15
2017-03-11T10:23:21.660Z,9.20
2017-03-11T10:24:18.138Z,9.30
2017-03-11T10:25:22.401Z,9.30
2017-03-11T10:26:22.366Z,9.33
2017-03-11T10:27:22.368Z,9.27
2017-03-11T10:28:11.858Z,9.33
2017-03-11T10:29:12.215Z,9.16
2017-03-11T10:30:11.262Z,8.94
2017-03-11T10:31:15.899Z,8.82
2017-03-11T10:32:16.773Z,8.93
2017-03-11T10:33:14.429Z,9.04
2017-03-11T10:34:17.860Z,9.23
2017-03-11T10:35:14.450Z,9.24
2017-03-11T10:36:17.567Z,9.06
2017-03-11T10:37:14.912Z,9.14
2017-03-11T10:38:17.301Z,9.17
2017-03-11T10:39:17.439Z,9.34
2017-03-11T10:40:16.570Z,9.11
2017-03-11T10:41:18.177Z,9.20
2017-03-11T10:42:13.907Z,9.29
2017-03-11T10:43:22.177Z,9.21
2017-03-11T10:44:22.343Z,9.38
2017-03-11T10:45:16.602Z,9.21
2017-03-11T10:46:17.386Z,9.10
2017-03-11T10:47:17.469Z,9.22
2017-03-11T10:48:16.076Z,9.25
2017-03-11T10:49:18.064Z,8.97
2017-03-11T10:50:22.028Z,9.16
2017-03-11T10:51:16.836Z,9.13
2017-03-11T10:52:22.297Z,9.01
2017-03-11T10:53:16.896Z,9.18
2017-03-11T10:54:17.327Z,9.35
2017-03-11T10:55:17.577Z,9.48
2017-03-11T10:56:21.578Z,9.35
2017-03-11T10:57:21.548Z,9.26
2017-03-11T10:58:16.650Z,9.31
2017-03-11T10:59:16.752Z,9.29
2017-03-11T11:00:22.007Z,9.32
2017-03-11T11:01:22.580Z,9.30
2017-03-11T11:02:15.265Z,9.16
2017-03-11T11:03:13.508Z,9.12
2017-03-11T11:04:16.593Z,9.12
2017-03-11T11:05:16.186Z,9.09
2017-03-11T11:06:17.867Z,9.13
2017-03-11T11:07:13.649Z,9.11
2017-03-11T11:08:17.184Z,9.10
2017-03-11T11:09:17.279Z,8.94
2017-03-11T11:10:17.019Z,9.00
2017-03-11T11:11:17.131Z,9.07
2017-03-11T11:12:16.675Z,9.04
2017-03-11T11:13:13.857Z,9.04
2017-03-11T11:14:16.970Z,9.04
2017-03-11T11:15:13.806Z,9.01
2017-03-11T11:16:22.259Z,8.86
2017-03-11T11:17:16.685Z,8.85
2017-03-11T11:18:22.346Z,8.88
2017-03-11T11:19:17.597Z,8.91
2017-03-11T11:20:17.084Z,8.76
2017-03-11T11:21:13.392Z,8.71
2017-03-11T11:22:17.488Z,8.74
2017-03-11T11:23:16.801Z,8.74
2017-03-11T11:24:22.373Z,8.61
2017-03-11T11:25:16.664Z,8.62
2017-03-11T11:26:16.780Z,8.67
2017-03-11T11:27:16.824Z,8.68
2017-03-11T11:28:22.588Z,8.74
2017-03-11T11:29:22.211Z,8.82
2017-03-11T11:30:17.876Z,8.75
2017-03-11T11:31:21.789Z,8.78
2017-03-11T11:32:16.592Z,8.78
2017-03-11T11:33:18.286Z,8.73
2017-03-11T11:34:17.101Z,8.79
2017-03-11T11:35:16.781Z,8.79
2017-03-11T11:36:17.091Z,8.85
2017-03-11T11:37:22.272Z,8.87
2017-03-11T11:38:14.239Z,8.88
2017-03-11T11:39:15.881Z,8.93
2017-03-11T11:40:21.819Z,8.97
2017-03-11T11:41:16.826Z,9.10
2017-03-11T11:42:22.000Z,9.11
2017-03-11T11:43:16.695Z,9.04
2017-03-11T11:44:17.320Z,9.01
2017-03-11T11:45:21.660Z,9.05
2017-03-11T11:46:16.894Z,9.05
2017-03-11T11:47:16.702Z,9.02
2017-03-11T11:48:16.691Z,9.05
2017-03-11T11:49:13.846Z,9.06
2017-03-11T11:50:16.635Z,9.07
2017-03-11T11:51:13.857Z,9.12
2017-03-11T11:52:21.922Z,9.11
2017-03-11T11:53:21.017Z,9.15
2017-03-11T11:54:16.606Z,9.17
2017-03-11T11:55:17.433Z,9.13
2017-03-11T11:56:17.559Z,9.15
2017-03-11T11:57:21.873Z,9.44
2017-03-11T11:58:14.571Z,9.38
2017-03-11T11:59:16.035Z,9.32
2017-03-11T12:00:18.121Z,9.25
2017-03-11T12:01:22.140Z,9.22
2017-03-11T12:02:12.465Z,9.21
2017-03-11T12:03:22.031Z,9.23
2017-03-11T12:04:17.981Z,9.21
2017-03-11T12:05:16.708Z,9.24
2017-03-11T12:06:21.569Z,9.23
2017-03-11T12:07:21.659Z,9.31
2017-03-11T12:08:22.113Z,9.33
2017-03-11T12:09:14.713Z,9.33
2017-03-11T12:10:16.677Z,9.29
2017-03-11T12:11:21.886Z,9.28
2017-03-11T12:12:21.148Z,9.28
2017-03-11T12:13:14.617Z,9.31
2017-03-11T12:14:18.029Z,9.36
2017-03-11T12:15:11.767Z,9.41
2017-03-11T12:16:17.444Z,9.32
2017-03-11T12:17:13.923Z,9.36
2017-03-11T12:18:16.716Z,9.44
2017-03-11T12:19:21.943Z,9.48
2017-03-11T12:20:17.081Z,9.51
2017-03-11T12:21:17.024Z,9.51
2017-03-11T12:22:11.509Z,9.56
2017-03-11T12:23:15.869Z,9.58
2017-03-11T12:24:12.085Z,9.57
2017-03-11T12:25:17.468Z,9.57
2017-03-11T12:26:13.877Z,9.63
2017-03-11T12:27:13.978Z,9.76
2017-03-11T12:28:16.726Z,9.78
2017-03-11T12:29:17.385Z,9.82
2017-03-11T12:30:22.377Z,9.76
2017-03-11T12:31:17.536Z,9.69
2017-03-11T12:32:22.668Z,9.67
2017-03-11T12:33:18.701Z,9.66
2017-03-11T12:34:11.739Z,9.66
2017-03-11T12:35:16.752Z,9.76
2017-03-11T12:36:22.435Z,9.83
2017-03-11T12:37:22.403Z,9.84
2017-03-11T12:38:16.708Z,9.77
2017-03-11T12:39:16.757Z,9.74
2017-03-11T12:40:16.569Z,9.76
2017-03-11T12:41:18.404Z,9.76
2017-03-11T12:42:18.434Z,9.79
2017-03-11T12:43:15.406Z,9.75
2017-03-11T12:44:22.079Z,9.79
2017-03-11T12:45:15.936Z,9.79
2017-03-11T12:46:21.694Z,9.81
2017-03-11T12:47:14.623Z,9.80
2017-03-11T12:48:21.660Z,9.82
2017-03-11T12:49:17.425Z,9.73
2017-03-11T12:50:22.470Z,9.80
2017-03-11T12:51:17.543Z,9.86
2017-03-11T12:52:21.709Z,9.90
2017-03-11T12:53:18.363Z,9.83
2017-03-11T12:54:18.443Z,9.86
2017-03-11T12:55:12.818Z,9.98
2017-03-11T12:56:22.444Z,10.08
2017-03-11T12:57:18.079Z,10.20
2017-03-11T12:58:16.434Z,10.26
2017-03-11T12:59:17.171Z,10.27
2017-03-11T13:00:17.243Z,10.34
2017-03-11T13:01:17.422Z,10.41
2017-03-11T13:02:14.939Z,10.40
2017-03-11T13:03:16.788Z,10.15
2017-03-11T13:04:21.490Z,10.24
2017-03-11T13:05:14.546Z,10.21
2017-03-11T13:06:22.173Z,10.23
2017-03-11T13:07:21.906Z,10.40
2017-03-11T13:08:16.813Z,10.51
2017-03-11T13:09:16.742Z,10.61
2017-03-11T13:10:22.130Z,10.65
2017-03-11T13:11:15.603Z,10.73
2017-03-11T13:12:16.662Z,10.81
2017-03-11T13:13:13.213Z,10.84
2017-03-11T13:14:17.545Z,10.89
2017-03-11T13:15:12.407Z,11.02
2017-03-11T13:16:13.526Z,11.08
2017-03-11T13:17:13.890Z,11.15
2017-03-11T13:18:22.728Z,11.13
2017-03-11T13:19:15.141Z,10.98
2017-03-11T13:20:12.157Z,11.02
2017-03-11T13:21:11.544Z,11.06
2017-03-11T13:22:14.053Z,11.05
2017-03-11T13:23:16.853Z,11.19
2017-03-11T13:24:16.529Z,11.14
2017-03-11T13:26:19.630Z,11.32
2017-03-11T13:28:20.759Z,11.39
2017-03-11T13:29:13.735Z,11.48
2017-03-11T13:32:16.581Z,11.62
2017-03-11T13:36:22.090Z,11.57
2017-03-11T13:37:22.340Z,11.62
2017-03-11T13:38:31.117Z,11.64
2017-03-11T13:39:22.583Z,11.62
2017-03-11T13:40:13.608Z,11.62
2017-03-11T13:41:22.330Z,11.62
2017-03-11T13:42:22.190Z,11.64
2017-03-11T13:43:22.224Z,11.61
2017-03-11T13:44:22.411Z,11.73
2017-03-11T13:45:22.422Z,12.18
2017-03-11T13:46:17.175Z,12.83
2017-03-11T13:47:17.277Z,13.05
2017-03-11T13:48:18.032Z,13.47
2017-03-11T13:49:21.581Z,13.59